createdAt,value
2022-12-23T00:01:46.179Z,8.81
2022-12-23T00:04:18.817Z,8.87
2022-12-23T00:06:51.652Z,8.80
2022-12-23T00:09:28.340Z,8.83
2022-12-23T00:12:18.301Z,8.79
2022-12-23T00:15:09.127Z,8.82
2022-12-23T00:17:45.457Z,8.85
2022-12-23T00:20:18.821Z,8.80
2022-12-23T00:23:06.432Z,8.83
2022-12-23T00:25:45.001Z,8.71
2022-12-23T00:28:20.607Z,8.80
2022-12-23T00:30:55.071Z,8.86
2022-12-23T00:33:29.456Z,8.76
2022-12-23T00:36:02.099Z,8.88
2022-12-23T00:38:51.983Z,8.88
2022-12-23T00:41:42.278Z,8.86
2022-12-23T00:44:14.848Z,8.85
2022-12-23T00:46:47.280Z,8.83
2022-12-23T00:49:38.587Z,8.81
2022-12-23T00:52:13.047Z,8.78
2022-12-23T00:54:45.464Z,8.77
2022-12-23T00:57:17.921Z,8.75
2022-12-23T00:59:50.324Z,8.64
2022-12-23T01:02:40.142Z,8.63
2022-12-23T01:08:23.586Z,8.56
2022-12-23T01:10:56.037Z,8.57
2022-12-23T01:13:28.443Z,8.54
2022-12-23T01:16:04.582Z,8.53
2022-12-23T01:18:38.767Z,8.50
2022-12-23T01:23:09.783Z,8.56
2022-12-23T01:25:42.544Z,8.53
2022-12-23T01:28:15.534Z,8.43
2022-12-23T01:30:47.846Z,8.54
2022-12-23T01:33:20.569Z,8.55
2022-12-23T01:35:53.258Z,8.58
2022-12-23T01:38:26.325Z,8.61
2022-12-23T01:40:59.014Z,8.63
2022-12-23T01:46:28.173Z,8.67
2022-12-23T01:49:00.664Z,8.59
2022-12-23T01:51:33.660Z,8.66
2022-12-23T01:54:06.666Z,8.69
2022-12-23T01:56:41.519Z,8.66
2022-12-23T01:59:36.991Z,8.63
2022-12-23T02:02:25.294Z,8.73
2022-12-23T02:04:58.520Z,8.73
2022-12-23T02:07:48.952Z,8.70
2022-12-23T02:10:22.284Z,8.67
2022-12-23T02:13:02.211Z,8.60
2022-12-23T02:15:57.272Z,8.72
2022-12-23T02:18:48.639Z,8.70
2022-12-23T02:21:46.039Z,8.62
2022-12-23T02:24:45.676Z,8.78
2022-12-23T02:27:24.671Z,8.87
2022-12-23T02:30:36.959Z,8.88
2022-12-23T02:33:21.053Z,8.89
2022-12-23T02:36:05.399Z,8.94
2022-12-23T02:38:47.136Z,8.94
2022-12-23T02:41:29.237Z,8.91
2022-12-23T02:44:10.501Z,8.88
2022-12-23T02:46:48.325Z,9.01
2022-12-23T02:49:26.527Z,9.05
2022-12-23T02:52:03.028Z,9.03
2022-12-23T02:54:40.221Z,8.93
2022-12-23T02:57:18.150Z,9.05
2022-12-23T02:59:53.853Z,9.02
2022-12-23T03:02:26.849Z,8.98
2022-12-23T03:05:01.165Z,8.99
2022-12-23T03:07:39.911Z,8.97
2022-12-23T03:10:20.386Z,8.91
2022-12-23T03:13:02.754Z,8.96
2022-12-23T03:15:48.252Z,8.85
2022-12-23T03:18:28.984Z,8.93
2022-12-23T03:21:08.269Z,8.92
2022-12-23T03:23:50.386Z,8.98
2022-12-23T03:26:32.194Z,9.02
2022-12-23T03:29:13.647Z,8.98
2022-12-23T03:31:48.705Z,9.01
2022-12-23T03:34:26.027Z,9.01
2022-12-23T03:37:02.839Z,9.05
2022-12-23T03:39:40.456Z,9.06
2022-12-23T03:42:18.763Z,9.07
2022-12-23T03:45:28.019Z,9.07
2022-12-23T03:47:51.776Z,9.05
2022-12-23T03:50:26.639Z,9.04
2022-12-23T03:52:59.874Z,9.05
2022-12-23T03:55:37.099Z,9.04
2022-12-23T03:58:15.722Z,9.05
2022-12-23T04:00:57.729Z,9.04
2022-12-23T04:03:38.763Z,9.02
2022-12-23T04:06:17.116Z,9.00
2022-12-23T04:08:52.564Z,9.02
2022-12-23T04:11:25.161Z,9.01
2022-12-23T04:13:57.609Z,8.98
2022-12-23T04:16:30.859Z,8.95
2022-12-23T04:19:03.249Z,8.96
2022-12-23T04:21:35.698Z,8.98
2022-12-23T04:24:09.243Z,8.94
2022-12-23T04:26:41.696Z,8.97
2022-12-23T04:29:14.139Z,8.96
2022-12-23T04:31:46.667Z,8.91
2022-12-23T04:34:19.472Z,8.88
2022-12-23T04:36:51.950Z,8.94
2022-12-23T04:39:24.582Z,8.93
2022-12-23T04:41:57.224Z,8.90
2022-12-23T04:44:29.682Z,8.86
2022-12-23T04:47:02.593Z,8.91
2022-12-23T04:49:35.337Z,8.90
2022-12-23T04:52:08.638Z,8.90
2022-12-23T04:54:46.014Z,8.88
2022-12-23T04:57:18.808Z,8.88
2022-12-23T04:59:51.275Z,8.85
2022-12-23T05:02:25.953Z,8.81
2022-12-23T05:04:58.693Z,8.86
2022-12-23T05:07:31.362Z,8.86
2022-12-23T05:10:04.099Z,8.89
2022-12-23T05:12:36.604Z,8.86
2022-12-23T05:15:11.137Z,8.86
2022-12-23T05:17:43.837Z,8.89
2022-12-23T05:20:16.562Z,8.83
2022-12-23T05:22:49.009Z,8.79
2022-12-23T05:25:21.490Z,8.83
2022-12-23T05:27:56.944Z,8.69
2022-12-23T05:30:29.654Z,8.80
2022-12-23T05:33:02.483Z,8.82
2022-12-23T05:35:35.183Z,8.71
2022-12-23T05:38:07.924Z,8.84
2022-12-23T05:40:40.383Z,8.88
2022-12-23T05:43:13.082Z,8.90
2022-12-23T05:45:45.889Z,8.93
2022-12-23T05:48:18.543Z,8.92
2022-12-23T05:50:53.983Z,8.95
2022-12-23T05:53:34.080Z,8.96
2022-12-23T05:56:09.165Z,8.97
2022-12-23T05:58:41.635Z,9.01
2022-12-23T06:01:14.021Z,9.01
2022-12-23T06:03:46.832Z,9.01
2022-12-23T06:06:19.700Z,9.01
2022-12-23T06:08:55.871Z,9.03
2022-12-23T06:11:31.767Z,8.96
2022-12-23T06:14:04.217Z,9.08
2022-12-23T06:16:37.091Z,8.99
2022-12-23T06:19:09.746Z,9.11
2022-12-23T06:21:42.135Z,9.13
2022-12-23T06:24:15.072Z,9.15
2022-12-23T06:26:49.756Z,9.17
2022-12-23T06:29:26.516Z,9.09
2022-12-23T06:31:59.868Z,9.16
2022-12-23T06:34:32.709Z,9.09
2022-12-23T06:37:06.277Z,9.19
2022-12-23T06:39:38.761Z,9.17
2022-12-23T06:42:11.309Z,9.17
2022-12-23T06:44:43.680Z,9.16
2022-12-23T06:47:16.467Z,9.15
2022-12-23T06:49:49.241Z,9.15
2022-12-23T06:52:23.166Z,9.13
2022-12-23T06:54:56.104Z,9.11
2022-12-23T06:57:29.785Z,9.10
2022-12-23T07:00:02.200Z,9.10
2022-12-23T07:02:35.043Z,9.08
2022-12-23T07:05:08.241Z,9.08
2022-12-23T07:07:40.798Z,9.04
2022-12-23T07:10:13.559Z,9.06
2022-12-23T07:12:50.723Z,9.05
2022-12-23T07:15:23.411Z,9.04
2022-12-23T07:17:57.212Z,9.08
2022-12-23T07:20:29.669Z,9.08
2022-12-23T07:23:02.810Z,9.09
2022-12-23T07:25:35.342Z,9.10
2022-12-23T07:28:08.052Z,9.08
2022-12-23T07:30:40.578Z,9.08
2022-12-23T07:33:13.879Z,9.08
2022-12-23T07:35:46.776Z,9.02
2022-12-23T07:38:19.449Z,9.07
2022-12-23T07:40:52.852Z,9.05
2022-12-23T07:43:25.603Z,9.04
2022-12-23T07:46:00.833Z,9.01
2022-12-23T07:48:33.954Z,9.03
2022-12-23T07:51:07.078Z,9.05
2022-12-23T07:53:39.486Z,9.05
2022-12-23T07:56:12.291Z,9.04
2022-12-23T07:58:44.880Z,9.04
2022-12-23T08:01:17.619Z,9.03
2022-12-23T08:03:50.607Z,9.07
2022-12-23T08:06:23.205Z,9.07
2022-12-23T08:08:55.845Z,9.08
2022-12-23T08:11:28.395Z,9.06
2022-12-23T08:14:00.859Z,9.03
2022-12-23T08:16:39.565Z,9.04
2022-12-23T08:19:16.867Z,9.00
2022-12-23T08:21:52.028Z,9.06
2022-12-23T08:24:28.887Z,9.06
2022-12-23T08:27:12.161Z,9.08
2022-12-23T08:29:53.135Z,9.13
2022-12-23T08:32:32.067Z,9.24
2022-12-23T08:35:09.333Z,9.24
2022-12-23T08:37:48.952Z,9.22
2022-12-23T08:40:32.412Z,9.25
2022-12-23T08:43:13.349Z,9.24
2022-12-23T08:45:51.151Z,9.24
2022-12-23T08:48:29.406Z,9.24
2022-12-23T08:51:07.925Z,9.18
2022-12-23T08:53:45.163Z,9.27
2022-12-23T08:56:23.424Z,9.32
2022-12-23T08:59:00.672Z,9.30
2022-12-23T09:01:34.794Z,9.28
2022-12-23T09:06:09.698Z,9.37
2022-12-23T09:08:41.193Z,9.27
2022-12-23T09:11:15.465Z,9.28
2022-12-23T09:13:48.551Z,9.32
2022-12-23T09:16:21.496Z,9.36
2022-12-23T09:18:54.072Z,9.37
2022-12-23T09:21:26.719Z,9.38
2022-12-23T09:23:59.223Z,9.39
2022-12-23T09:26:32.724Z,9.41
2022-12-23T09:29:05.476Z,9.46
2022-12-23T09:31:38.263Z,9.48
2022-12-23T09:34:13.140Z,9.52
2022-12-23T09:36:43.971Z,9.57
2022-12-23T09:39:16.882Z,9.54
2022-12-23T09:42:04.090Z,9.47
2022-12-23T09:44:49.179Z,9.62
2022-12-23T09:47:21.277Z,9.70
2022-12-23T09:49:59.281Z,9.74
2022-12-23T09:52:41.813Z,9.75
2022-12-23T09:55:16.375Z,9.74
2022-12-23T09:57:56.811Z,9.69
2022-12-23T10:00:36.469Z,9.68
2022-12-23T10:03:22.035Z,9.70
2022-12-23T10:06:04.132Z,9.71
2022-12-23T10:08:38.977Z,9.71
2022-12-23T10:11:17.409Z,9.64
2022-12-23T10:13:53.622Z,9.76
2022-12-23T10:16:29.525Z,9.74
2022-12-23T10:19:05.259Z,9.70
2022-12-23T10:21:47.165Z,9.72
2022-12-23T10:24:27.020Z,9.74
2022-12-23T10:27:02.329Z,9.78
2022-12-23T10:29:35.771Z,9.73
2022-12-23T10:32:22.875Z,9.74
2022-12-23T10:35:01.154Z,9.85
2022-12-23T10:37:39.314Z,9.93
2022-12-23T10:40:22.680Z,9.88
2022-12-23T10:43:05.745Z,10.07
2022-12-23T10:45:50.040Z,10.10
2022-12-23T10:48:35.180Z,10.14
2022-12-23T10:51:14.322Z,10.13
2022-12-23T10:53:52.550Z,10.09
2022-12-23T10:56:25.386Z,10.11
2022-12-23T10:59:00.592Z,10.14
2022-12-23T11:01:34.019Z,10.12
2022-12-23T11:04:12.896Z,10.13
2022-12-23T11:07:10.835Z,10.09
2022-12-23T11:09:47.046Z,10.11
2022-12-23T11:12:26.049Z,10.15
2022-12-23T11:15:00.318Z,10.16
2022-12-23T11:17:35.280Z,10.19
2022-12-23T11:20:16.547Z,10.16
2022-12-23T11:22:54.419Z,10.22
2022-12-23T11:25:34.089Z,10.15
2022-12-23T11:28:13.266Z,10.11
2022-12-23T11:30:57.392Z,10.13
2022-12-23T11:33:31.703Z,10.13
2022-12-23T11:36:07.868Z,10.14
2022-12-23T11:38:51.532Z,10.10
2022-12-23T11:41:27.658Z,10.09
2022-12-23T11:44:04.939Z,10.13
2022-12-23T11:46:38.298Z,10.15
2022-12-23T11:49:21.265Z,10.08
2022-12-23T11:52:03.806Z,10.10
2022-12-23T11:54:36.853Z,9.99
2022-12-23T11:57:16.898Z,10.02
2022-12-23T11:59:50.945Z,10.03
2022-12-23T12:02:29.364Z,9.95
2022-12-23T12:05:04.424Z,9.92
2022-12-23T12:07:37.593Z,9.89
2022-12-23T12:10:18.637Z,9.90
2022-12-23T12:12:55.221Z,10.02
2022-12-23T12:15:38.378Z,9.84
2022-12-23T12:18:16.247Z,9.84
2022-12-23T12:20:53.689Z,9.73
2022-12-23T12:23:32.403Z,9.81
2022-12-23T12:26:07.667Z,9.75
2022-12-23T12:28:44.289Z,9.77
2022-12-23T12:31:25.610Z,9.78
2022-12-23T12:34:05.183Z,9.79
2022-12-23T12:36:45.343Z,9.69
2022-12-23T12:39:22.292Z,9.59
2022-12-23T12:42:05.486Z,9.71
2022-12-23T12:44:47.019Z,9.69
2022-12-23T12:47:52.824Z,9.61
2022-12-23T12:50:23.617Z,9.40
2022-12-23T12:53:01.504Z,9.48
2022-12-23T12:55:38.657Z,9.49
2022-12-23T12:58:20.120Z,9.42
2022-12-23T13:01:04.192Z,9.39
2022-12-23T13:03:55.702Z,9.41
2022-12-23T13:06:40.708Z,9.42
2022-12-23T13:09:25.864Z,9.42
2022-12-23T13:12:15.875Z,9.36
2022-12-23T13:14:59.365Z,9.41
2022-12-23T13:17:38.668Z,9.57
2022-12-23T13:20:21.813Z,9.54
2022-12-23T13:23:20.887Z,9.62
2022-12-23T13:26:00.130Z,9.67
2022-12-23T13:28:41.814Z,9.65
2022-12-23T13:31:34.063Z,9.68
2022-12-23T13:34:22.613Z,9.72
2022-12-23T13:37:01.713Z,9.73
2022-12-23T13:39:47.267Z,9.74
2022-12-23T13:42:31.402Z,9.71
2022-12-23T13:45:05.059Z,9.72
2022-12-23T13:47:47.680Z,9.71
2022-12-23T13:50:25.566Z,9.70
2022-12-23T13:53:11.832Z,9.75
2022-12-23T13:56:04.366Z,9.78
2022-12-23T13:58:40.513Z,9.78
2022-12-23T14:01:37.266Z,9.77
2022-12-23T14:04:37.645Z,9.77
2022-12-23T14:07:21.739Z,9.76
2022-12-23T14:09:59.176Z,9.73
2022-12-23T14:12:36.861Z,9.70
2022-12-23T14:15:27.715Z,9.54
2022-12-23T14:18:28.320Z,9.66
2022-12-23T14:21:12.728Z,9.67
2022-12-23T14:24:04.502Z,9.54
2022-12-23T14:26:54.849Z,9.45
2022-12-23T14:29:51.416Z,9.47
2022-12-23T14:32:27.970Z,9.45
2022-12-23T14:35:26.297Z,9.47
2022-12-23T14:38:32.036Z,9.46
2022-12-23T14:41:24.252Z,9.45
2022-12-23T14:43:59.599Z,9.43
2022-12-23T14:46:58.340Z,9.43
2022-12-23T14:49:44.065Z,9.43
2022-12-23T14:52:58.232Z,9.40
2022-12-23T14:56:09.726Z,9.28
2022-12-23T14:59:02.101Z,9.37
2022-12-23T15:01:38.287Z,9.29
2022-12-23T15:04:20.410Z,9.35
2022-12-23T15:06:56.578Z,9.29
2022-12-23T15:09:31.756Z,9.25
2022-12-23T15:12:07.804Z,9.23
2022-12-23T15:14:45.659Z,9.28
2022-12-23T15:17:27.864Z,9.29
2022-12-23T15:20:15.957Z,9.30
2022-12-23T15:22:49.557Z,9.38
2022-12-23T15:25:27.489Z,9.36
2022-12-23T15:28:03.311Z,9.35
2022-12-23T15:30:45.910Z,9.35
2022-12-23T15:34:00.509Z,9.38
2022-12-23T15:36:16.340Z,9.38
2022-12-23T15:38:49.717Z,9.38
2022-12-23T15:41:22.710Z,9.44
2022-12-23T15:44:01.926Z,9.33
2022-12-23T15:46:40.147Z,9.41
2022-12-23T15:49:14.248Z,9.43
2022-12-23T15:52:07.217Z,9.44
2022-12-23T15:54:45.997Z,9.45
2022-12-23T15:57:21.900Z,9.44
2022-12-23T15:59:54.982Z,9.45
2022-12-23T16:02:59.670Z,9.44
2022-12-23T16:05:31.051Z,9.45
2022-12-23T16:08:29.634Z,9.43
2022-12-23T16:11:14.917Z,9.36
2022-12-23T16:14:02.166Z,9.45
2022-12-23T16:16:41.653Z,9.44
2022-12-23T16:19:46.833Z,9.35
2022-12-23T16:22:29.298Z,9.43
2022-12-23T16:25:10.088Z,9.45
2022-12-23T16:27:44.888Z,9.42
2022-12-23T16:30:21.231Z,9.44
2022-12-23T16:32:56.316Z,9.44
2022-12-23T16:35:38.827Z,9.46
2022-12-23T16:38:27.646Z,9.46
2022-12-23T16:41:00.105Z,9.43
2022-12-23T16:43:33.775Z,9.39
2022-12-23T16:46:08.380Z,9.37
2022-12-23T16:48:40.911Z,9.37
2022-12-23T16:51:17.059Z,9.38
2022-12-23T16:53:51.082Z,9.39
2022-12-23T16:56:25.586Z,9.40
2022-12-23T16:58:58.016Z,9.39
2022-12-23T17:01:33.318Z,9.38
2022-12-23T17:04:06.040Z,9.26
2022-12-23T17:06:39.737Z,9.36
2022-12-23T17:09:13.806Z,9.25
2022-12-23T17:11:48.186Z,9.24
2022-12-23T17:14:20.732Z,9.35
2022-12-23T17:16:53.746Z,9.34
2022-12-23T17:19:29.056Z,9.32
2022-12-23T17:22:04.474Z,9.31
2022-12-23T17:24:35.800Z,9.31
2022-12-23T17:27:14.926Z,9.30
2022-12-23T17:29:47.497Z,9.27
2022-12-23T17:32:21.607Z,9.28
2022-12-23T17:34:54.061Z,9.28
2022-12-23T17:37:26.793Z,9.25
2022-12-23T17:39:59.356Z,9.26
2022-12-23T17:42:31.983Z,9.27
2022-12-23T17:45:04.862Z,9.26
2022-12-23T17:47:37.460Z,9.24
2022-12-23T17:50:12.937Z,9.26
2022-12-23T17:52:45.629Z,9.28
2022-12-23T17:55:22.262Z,9.31
2022-12-23T17:57:54.905Z,9.32
2022-12-23T18:00:34.132Z,9.33
2022-12-23T18:03:09.492Z,9.33
2022-12-23T18:05:42.058Z,9.35
2022-12-23T18:08:14.853Z,9.33
2022-12-23T18:10:47.931Z,9.33
2022-12-23T18:13:22.475Z,9.32
2022-12-23T18:15:54.932Z,9.33
2022-12-23T18:18:36.809Z,9.32
2022-12-23T18:21:20.118Z,9.21
2022-12-23T18:23:53.373Z,9.22
2022-12-23T18:26:27.542Z,9.20
2022-12-23T18:29:01.597Z,9.32
2022-12-23T18:31:34.200Z,9.32
2022-12-23T18:34:07.729Z,9.30
2022-12-23T18:36:40.585Z,9.30
2022-12-23T18:39:13.284Z,9.30
2022-12-23T18:41:45.745Z,9.30
2022-12-23T18:44:21.166Z,9.20
2022-12-23T18:46:53.835Z,9.30
2022-12-23T18:49:26.404Z,9.31
2022-12-23T18:51:58.933Z,9.30
2022-12-23T18:54:31.642Z,9.29
2022-12-23T18:57:05.011Z,9.29
2022-12-23T18:59:39.060Z,9.28
2022-12-23T19:02:15.408Z,9.30
2022-12-23T19:04:48.047Z,9.30
2022-12-23T19:07:20.782Z,9.29
2022-12-23T19:09:54.194Z,9.31
2022-12-23T19:12:27.304Z,9.31
2022-12-23T19:14:59.749Z,9.33
2022-12-23T19:17:32.252Z,9.33
2022-12-23T19:20:04.891Z,9.28
2022-12-23T19:22:37.497Z,9.34
2022-12-23T19:25:11.687Z,9.35
2022-12-23T19:27:44.951Z,9.35
2022-12-23T19:30:20.071Z,9.35
2022-12-23T19:32:54.085Z,9.35
2022-12-23T19:35:26.936Z,9.37
2022-12-23T19:37:59.495Z,9.37
2022-12-23T19:40:33.284Z,9.35
2022-12-23T19:43:06.226Z,9.36
2022-12-23T19:45:38.709Z,9.34
2022-12-23T19:48:11.183Z,9.34
2022-12-23T19:50:44.076Z,9.34
2022-12-23T19:53:17.003Z,9.37
2022-12-23T19:55:59.174Z,9.37
2022-12-23T19:58:35.609Z,9.30
2022-12-23T20:01:13.702Z,9.40
2022-12-23T20:03:47.236Z,9.40
2022-12-23T20:06:21.778Z,9.41
2022-12-23T20:09:00.051Z,9.40
2022-12-23T20:11:36.613Z,9.38
2022-12-23T20:14:10.098Z,9.39
2022-12-23T20:16:43.535Z,9.30
2022-12-23T20:19:16.155Z,9.39
2022-12-23T20:21:48.521Z,9.41
2022-12-23T20:24:22.259Z,9.41
2022-12-23T20:26:54.983Z,9.42
2022-12-23T20:29:28.160Z,9.42
2022-12-23T20:32:00.656Z,9.32
2022-12-23T20:34:39.139Z,9.42
2022-12-23T20:37:13.374Z,9.29
2022-12-23T20:39:45.881Z,9.40
2022-12-23T20:42:18.599Z,9.39
2022-12-23T20:44:51.891Z,9.40
2022-12-23T20:47:24.270Z,9.40
2022-12-23T20:49:56.833Z,9.32
2022-12-23T20:52:29.640Z,9.38
2022-12-23T20:55:02.886Z,9.36
2022-12-23T20:57:36.014Z,9.37
2022-12-23T21:00:10.680Z,9.37
2022-12-23T21:02:43.263Z,9.37
2022-12-23T21:05:16.038Z,9.37
2022-12-23T21:07:48.700Z,9.40
2022-12-23T21:10:21.343Z,9.40
2022-12-23T21:12:54.470Z,9.23
2022-12-23T21:15:26.872Z,9.45
2022-12-23T21:17:59.318Z,9.46
2022-12-23T21:20:32.086Z,9.47
2022-12-23T21:23:04.501Z,9.47
2022-12-23T21:25:37.014Z,9.46
2022-12-23T21:28:09.339Z,9.47
2022-12-23T21:30:41.847Z,9.48
2022-12-23T21:33:15.436Z,9.47
2022-12-23T21:35:48.593Z,9.47
2022-12-23T21:38:21.741Z,9.49
2022-12-23T21:40:59.776Z,9.49
2022-12-23T21:43:32.681Z,9.49
2022-12-23T21:46:07.009Z,9.48
2022-12-23T21:48:40.373Z,9.45
2022-12-23T21:51:15.811Z,9.47
2022-12-23T21:53:50.477Z,9.45
2022-12-23T21:56:25.177Z,9.43
2022-12-23T21:59:00.315Z,9.44
2022-12-23T22:01:33.339Z,9.46
2022-12-23T22:04:06.590Z,9.46
2022-12-23T22:06:41.398Z,9.44
2022-12-23T22:09:15.688Z,9.37
2022-12-23T22:11:49.149Z,9.45
2022-12-23T22:14:21.905Z,9.45
2022-12-23T22:16:54.617Z,9.46
2022-12-23T22:19:27.329Z,9.44
2022-12-23T22:22:00.877Z,9.44
2022-12-23T22:24:35.619Z,9.44
2022-12-23T22:27:06.783Z,9.44
2022-12-23T22:29:42.358Z,9.31
2022-12-23T22:32:15.518Z,9.40
2022-12-23T22:34:47.922Z,9.39
2022-12-23T22:37:20.691Z,9.39
2022-12-23T22:39:53.563Z,9.30
2022-12-23T22:42:25.986Z,9.38
2022-12-23T22:44:58.559Z,9.35
2022-12-23T22:47:31.164Z,9.37
2022-12-23T22:50:03.695Z,9.37
2022-12-23T22:52:36.393Z,9.37
2022-12-23T22:55:11.332Z,9.36
2022-12-23T22:57:43.788Z,9.34
2022-12-23T23:00:17.730Z,9.35
2022-12-23T23:02:50.424Z,9.33
2022-12-23T23:05:23.613Z,9.29
2022-12-23T23:07:56.009Z,9.31
2022-12-23T23:10:28.711Z,9.32
2022-12-23T23:13:01.473Z,9.31
2022-12-23T23:15:34.736Z,9.27
2022-12-23T23:18:07.548Z,9.28
2022-12-23T23:20:40.310Z,9.27
2022-12-23T23:23:12.910Z,9.30
2022-12-23T23:25:45.636Z,9.30
2022-12-23T23:28:18.188Z,9.32
2022-12-23T23:31:09.735Z,9.32
2022-12-23T23:33:44.078Z,9.29
2022-12-23T23:36:16.559Z,9.31
2022-12-23T23:38:49.148Z,9.30
2022-12-23T23:41:23.529Z,9.29
2022-12-23T23:43:54.728Z,9.30
2022-12-23T23:46:28.001Z,9.30
2022-12-23T23:49:00.568Z,9.27
2022-12-23T23:51:33.295Z,9.29
2022-12-23T23:54:05.898Z,9.29
2022-12-23T23:56:39.644Z,9.27
2022-12-23T23:59:12.238Z,9.29
